createdAt,value
2018-10-03T00:02:03.761Z,14.03
2018-10-03T00:04:27.641Z,10.07
2018-10-03T00:06:51.618Z,22.57
2018-10-03T00:09:15.487Z,17.90
2018-10-03T00:11:39.365Z,15.43
2018-10-03T00:14:03.286Z,14.40
2018-10-03T00:16:27.185Z,14.57
2018-10-03T00:18:51.124Z,14.57
2018-10-03T00:21:15.049Z,12.57
2018-10-03T00:23:38.898Z,18.03
2018-10-03T00:26:02.794Z,16.17
2018-10-03T00:28:26.674Z,13.30
2018-10-03T00:30:50.651Z,17.07
2018-10-03T00:33:14.530Z,16.37
2018-10-03T00:35:38.387Z,9.97
2018-10-03T00:38:02.295Z,15.77
2018-10-03T00:40:26.172Z,13.50
2018-10-03T00:42:50.043Z,15.83
2018-10-03T00:45:13.911Z,14.00
2018-10-03T00:47:37.812Z,23.17
2018-10-03T00:50:01.741Z,15.03
2018-10-03T00:52:25.615Z,16.30
2018-10-03T00:54:49.473Z,10.10
2018-10-03T00:57:13.343Z,13.90
2018-10-03T00:59:37.205Z,18.40
2018-10-03T01:02:01.096Z,16.30
2018-10-03T01:04:24.970Z,13.90
2018-10-03T01:06:48.841Z,18.53
2018-10-03T01:09:12.740Z,14.47
2018-10-03T01:11:36.655Z,11.47
2018-10-03T01:14:00.624Z,15.87
2018-10-03T01:16:25.387Z,15.07
2018-10-03T01:18:49.247Z,17.37
2018-10-03T01:21:13.134Z,18.47
2018-10-03T01:23:36.992Z,8.60
2018-10-03T01:26:00.976Z,13.07
2018-10-03T01:28:24.857Z,15.73
2018-10-03T01:30:48.747Z,12.87
2018-10-03T01:33:12.608Z,13.83
2018-10-03T01:35:36.514Z,15.87
2018-10-03T01:38:00.474Z,15.87
2018-10-03T01:40:24.331Z,15.87
2018-10-03T01:42:48.229Z,11.27
2018-10-03T01:45:12.108Z,21.33
2018-10-03T01:47:35.967Z,12.17
2018-10-03T01:49:59.856Z,15.70
2018-10-03T01:52:23.691Z,13.50
2018-10-03T01:54:47.576Z,12.70
2018-10-03T01:57:11.488Z,16.27
2018-10-03T01:59:35.390Z,9.10
2018-10-03T02:01:59.293Z,14.10
2018-10-03T02:04:23.136Z,8.83
2018-10-03T02:06:47.020Z,12.90
2018-10-03T02:09:10.888Z,16.63
2018-10-03T02:11:34.771Z,14.47
2018-10-03T02:13:58.791Z,11.10
2018-10-03T02:16:22.642Z,10.93
2018-10-03T02:18:46.529Z,17.40
2018-10-03T02:21:10.415Z,11.13
2018-10-03T02:23:34.440Z,11.43
2018-10-03T02:25:58.332Z,14.23
2018-10-03T02:28:22.202Z,15.17
2018-10-03T02:30:46.064Z,13.13
2018-10-03T02:33:09.937Z,12.13
2018-10-03T02:35:33.810Z,11.60
2018-10-03T02:37:57.662Z,14.97
2018-10-03T02:40:21.570Z,17.53
2018-10-03T02:42:45.545Z,13.40
2018-10-03T02:45:09.488Z,15.37
2018-10-03T02:47:33.346Z,13.67
2018-10-03T02:49:57.238Z,14.80
2018-10-03T02:52:21.124Z,14.53
2018-10-03T02:54:44.994Z,11.97
2018-10-03T02:57:08.914Z,14.90
2018-10-03T02:59:32.793Z,14.37
2018-10-03T03:01:56.671Z,16.77
2018-10-03T03:04:20.525Z,15.80
2018-10-03T03:06:44.389Z,12.07
2018-10-03T03:09:10.533Z,18.17
2018-10-03T03:11:34.502Z,19.20
2018-10-03T03:13:58.435Z,12.40
2018-10-03T03:16:22.350Z,19.70
2018-10-03T03:18:46.377Z,13.83
2018-10-03T03:21:10.295Z,15.97
2018-10-03T03:23:34.155Z,14.53
2018-10-03T03:25:58.062Z,15.10
2018-10-03T03:28:21.931Z,16.00
2018-10-03T03:30:45.752Z,16.53
2018-10-03T03:33:09.634Z,15.97
2018-10-03T03:35:33.496Z,20.67
2018-10-03T03:37:57.386Z,13.07
2018-10-03T03:40:21.268Z,15.33
2018-10-03T03:42:45.101Z,15.47
2018-10-03T03:45:09.020Z,15.57
2018-10-03T03:47:32.870Z,16.73
2018-10-03T03:49:56.974Z,16.77
2018-10-03T03:52:20.844Z,14.73
2018-10-03T03:54:44.704Z,14.30
2018-10-03T03:57:08.617Z,15.63
2018-10-03T03:59:32.455Z,15.77
2018-10-03T04:01:56.324Z,15.60
2018-10-03T04:04:20.215Z,13.03
2018-10-03T04:06:44.084Z,17.37
2018-10-03T04:09:08.240Z,21.57
2018-10-03T04:11:32.077Z,13.27
2018-10-03T04:13:56.100Z,14.13
2018-10-03T04:16:19.926Z,13.47
2018-10-03T04:18:43.771Z,14.40
2018-10-03T04:21:07.656Z,17.53
2018-10-03T04:23:31.493Z,16.50
2018-10-03T04:25:55.576Z,9.30
2018-10-03T04:28:19.432Z,14.77
2018-10-03T04:30:43.498Z,14.40
2018-10-03T04:33:07.400Z,17.13
2018-10-03T04:35:31.309Z,14.90
2018-10-03T04:37:55.093Z,13.47
2018-10-03T04:40:18.998Z,10.83
2018-10-03T04:42:42.887Z,12.93
2018-10-03T04:45:06.813Z,14.10
2018-10-03T04:47:30.659Z,13.23
2018-10-03T04:49:54.553Z,14.20
2018-10-03T04:52:18.438Z,12.57
2018-10-03T04:54:42.313Z,19.67
2018-10-03T04:57:06.831Z,18.57
2018-10-03T04:59:30.857Z,10.30
2018-10-03T05:01:54.752Z,11.87
2018-10-03T05:04:18.608Z,9.33
2018-10-03T05:06:42.454Z,19.10
2018-10-03T05:09:07.704Z,16.70
2018-10-03T05:11:31.558Z,15.50
2018-10-03T05:13:55.436Z,13.70
2018-10-03T05:16:19.284Z,15.23
2018-10-03T05:18:43.142Z,16.07
2018-10-03T05:21:07.091Z,17.77
2018-10-03T05:23:30.946Z,14.97
2018-10-03T05:25:54.839Z,20.87
2018-10-03T05:28:18.730Z,16.40
2018-10-03T05:30:42.582Z,12.57
2018-10-03T05:33:06.817Z,13.70
2018-10-03T05:35:30.637Z,19.90
2018-10-03T05:37:54.527Z,14.87
2018-10-03T05:40:18.447Z,17.23
2018-10-03T05:42:42.308Z,12.57
2018-10-03T05:45:06.251Z,15.70
2018-10-03T05:47:30.132Z,13.30
2018-10-03T05:49:53.997Z,15.97
2018-10-03T05:52:17.860Z,15.47
2018-10-03T05:54:41.775Z,14.83
2018-10-03T05:57:05.663Z,12.43
2018-10-03T05:59:29.563Z,11.07
2018-10-03T06:01:53.401Z,12.50
2018-10-03T06:04:17.288Z,14.00
2018-10-03T06:06:41.164Z,19.93
2018-10-03T06:09:08.385Z,15.53
2018-10-03T06:11:32.252Z,16.97
2018-10-03T06:13:56.150Z,12.10
2018-10-03T06:16:20.047Z,14.80
2018-10-03T06:18:44.094Z,18.27
2018-10-03T06:21:07.799Z,12.70
2018-10-03T06:23:31.791Z,14.33
2018-10-03T06:25:55.707Z,13.00
2018-10-03T06:28:19.693Z,11.80
2018-10-03T06:30:43.608Z,15.57
2018-10-03T06:33:07.489Z,9.57
2018-10-03T06:35:31.335Z,17.13
2018-10-03T06:37:55.215Z,16.77
2018-10-03T06:40:19.154Z,14.33
2018-10-03T06:42:43.059Z,15.73
2018-10-03T06:45:07.235Z,11.37
2018-10-03T06:47:31.112Z,11.53
2018-10-03T06:49:54.980Z,13.10
2018-10-03T06:52:18.853Z,13.13
2018-10-03T06:54:42.885Z,15.93
2018-10-03T06:57:06.859Z,12.10
2018-10-03T06:59:30.688Z,14.60
2018-10-03T07:01:54.568Z,15.27
2018-10-03T07:04:18.436Z,16.33
2018-10-03T07:06:42.434Z,13.23
2018-10-03T07:09:07.648Z,13.33
2018-10-03T07:11:31.550Z,16.27
2018-10-03T07:13:55.471Z,10.20
2018-10-03T07:16:19.817Z,13.73
2018-10-03T07:18:43.784Z,14.63
2018-10-03T07:21:07.667Z,16.23
2018-10-03T07:23:31.559Z,16.53
2018-10-03T07:25:55.524Z,19.70
2018-10-03T07:28:19.415Z,20.17
2018-10-03T07:30:43.402Z,15.60
2018-10-03T07:33:07.276Z,17.23
2018-10-03T07:35:31.202Z,13.57
2018-10-03T07:37:55.085Z,17.23
2018-10-03T07:40:18.971Z,11.60
2018-10-03T07:42:43.231Z,14.93
2018-10-03T07:45:07.262Z,16.77
2018-10-03T07:47:31.428Z,15.20
2018-10-03T07:49:55.280Z,17.10
2018-10-03T07:52:19.255Z,17.60
2018-10-03T07:54:43.225Z,19.10
2018-10-03T07:57:07.094Z,13.67
2018-10-03T07:59:30.951Z,11.47
2018-10-03T08:01:54.943Z,11.03
2018-10-03T08:04:18.908Z,9.77
2018-10-03T08:06:42.813Z,13.77
2018-10-03T08:09:08.175Z,11.40
2018-10-03T08:11:32.075Z,15.20
2018-10-03T08:13:56.280Z,16.83
2018-10-03T08:16:20.148Z,17.97
2018-10-03T08:18:44.086Z,12.77
2018-10-03T08:21:07.993Z,13.67
2018-10-03T08:23:31.865Z,12.77
2018-10-03T08:25:55.830Z,10.10
2018-10-03T08:28:19.705Z,10.77
2018-10-03T08:30:43.576Z,10.87
2018-10-03T08:33:07.555Z,10.43
2018-10-03T08:35:31.429Z,18.07
2018-10-03T08:37:55.345Z,8.13
2018-10-03T08:40:19.252Z,10.57
2018-10-03T08:42:43.140Z,9.93
2018-10-03T08:45:07.305Z,14.93
2018-10-03T08:47:31.222Z,13.73
2018-10-03T08:49:55.150Z,11.60
2018-10-03T08:52:19.019Z,11.60
2018-10-03T08:54:43.179Z,9.07
2018-10-03T08:57:07.092Z,13.77
2018-10-03T08:59:30.990Z,12.40
2018-10-03T09:01:54.869Z,15.57
2018-10-03T09:04:18.748Z,12.57
2018-10-03T09:06:42.732Z,10.70
2018-10-03T09:09:08.536Z,13.07
2018-10-03T09:11:32.544Z,9.63
2018-10-03T09:13:56.385Z,12.47
2018-10-03T09:16:20.274Z,7.30
2018-10-03T09:18:44.250Z,9.03
2018-10-03T09:21:08.157Z,10.63
2018-10-03T09:23:32.022Z,11.73
2018-10-03T09:25:55.929Z,10.43
2018-10-03T09:28:19.880Z,7.83
2018-10-03T09:30:43.756Z,12.17
2018-10-03T09:33:07.689Z,7.90
2018-10-03T09:35:31.608Z,13.77
2018-10-03T09:37:55.506Z,9.13
2018-10-03T09:40:19.442Z,10.43
2018-10-03T09:42:43.553Z,8.47
2018-10-03T09:45:07.442Z,7.70
2018-10-03T09:47:31.327Z,6.70
2018-10-03T09:49:55.286Z,7.67
2018-10-03T09:52:19.191Z,9.30
2018-10-03T09:54:43.088Z,8.27
2018-10-03T09:57:07.000Z,6.23
2018-10-03T09:59:30.888Z,8.53
2018-10-03T10:01:54.830Z,7.70
2018-10-03T10:04:18.793Z,7.03
2018-10-03T10:06:42.720Z,10.57
2018-10-03T10:09:08.814Z,7.73
2018-10-03T10:11:32.914Z,10.00
2018-10-03T10:13:56.706Z,7.40
2018-10-03T10:16:20.543Z,8.07
2018-10-03T10:18:44.424Z,9.20
2018-10-03T10:21:08.307Z,9.97
2018-10-03T10:23:32.226Z,6.53
2018-10-03T10:25:56.160Z,11.50
2018-10-03T10:28:20.086Z,10.73
2018-10-03T10:30:44.023Z,7.37
2018-10-03T10:33:08.152Z,14.90
2018-10-03T10:35:31.942Z,4.33
2018-10-03T10:37:56.229Z,8.70
2018-10-03T10:40:20.292Z,6.67
2018-10-03T10:42:44.193Z,8.20
2018-10-03T10:45:08.096Z,9.43
2018-10-03T10:47:31.979Z,10.20
2018-10-03T10:49:55.950Z,7.90
2018-10-03T10:52:19.859Z,9.03
2018-10-03T10:54:43.753Z,6.23
2018-10-03T10:57:07.682Z,6.07
2018-10-03T10:59:31.592Z,7.93
2018-10-03T11:01:55.472Z,10.23
2018-10-03T11:04:19.640Z,9.20
2018-10-03T11:06:43.619Z,10.00
2018-10-03T11:09:08.025Z,6.10
2018-10-03T11:11:31.919Z,8.23
2018-10-03T11:13:55.951Z,8.20
2018-10-03T11:16:19.845Z,8.73
2018-10-03T11:18:43.735Z,8.47
2018-10-03T11:21:07.654Z,7.47
2018-10-03T11:23:31.610Z,6.00
2018-10-03T11:25:55.617Z,5.93
2018-10-03T11:28:19.724Z,6.77
2018-10-03T11:30:43.695Z,7.50
2018-10-03T11:33:07.708Z,7.20
2018-10-03T11:35:31.604Z,6.83
2018-10-03T11:37:55.507Z,7.03
2018-10-03T11:40:19.399Z,8.70
2018-10-03T11:42:43.308Z,7.63
2018-10-03T11:45:07.362Z,8.70
2018-10-03T11:47:31.230Z,7.07
2018-10-03T11:49:55.131Z,4.63
2018-10-03T11:52:19.076Z,6.20
2018-10-03T11:54:43.021Z,6.27
2018-10-03T11:57:07.049Z,6.97
2018-10-03T11:59:31.005Z,7.37
2018-10-03T12:01:54.842Z,8.90
2018-10-03T12:04:18.794Z,4.60
2018-10-03T12:06:42.706Z,8.47
2018-10-03T12:09:10.027Z,8.63
2018-10-03T12:11:33.905Z,8.67
2018-10-03T12:13:57.773Z,7.10
2018-10-03T12:16:21.699Z,6.80
2018-10-03T12:18:45.568Z,7.20
2018-10-03T12:21:09.562Z,6.00
2018-10-03T12:23:33.420Z,6.57
2018-10-03T12:25:57.341Z,5.33
2018-10-03T12:28:21.244Z,4.47
2018-10-03T12:30:45.136Z,4.03
2018-10-03T12:33:09.124Z,4.93
2018-10-03T12:35:33.032Z,5.33
2018-10-03T12:37:56.899Z,4.70
2018-10-03T12:40:20.816Z,5.40
2018-10-03T12:42:44.786Z,8.03
2018-10-03T12:45:08.855Z,5.40
2018-10-03T12:47:32.667Z,4.03
2018-10-03T12:49:56.590Z,4.93
2018-10-03T12:52:20.473Z,5.43
2018-10-03T12:54:44.442Z,4.60
2018-10-03T12:57:08.360Z,3.27
2018-10-03T12:59:32.275Z,4.40
2018-10-03T13:01:56.192Z,6.20
2018-10-03T13:04:20.084Z,5.70
2018-10-03T13:06:43.997Z,3.87
2018-10-03T13:09:10.717Z,8.03
2018-10-03T13:11:34.627Z,3.20
2018-10-03T13:13:58.619Z,3.93
2018-10-03T13:16:22.509Z,4.27
2018-10-03T13:18:46.450Z,3.27
2018-10-03T13:21:10.422Z,7.33
2018-10-03T13:23:34.356Z,5.60
2018-10-03T13:25:58.311Z,5.37
2018-10-03T13:28:22.232Z,3.57
2018-10-03T13:30:46.171Z,4.80
2018-10-03T13:33:10.078Z,4.50
2018-10-03T13:35:34.089Z,2.63
2018-10-03T13:37:57.989Z,4.83
2018-10-03T13:40:21.898Z,5.07
2018-10-03T13:42:45.915Z,3.30
2018-10-03T13:45:09.865Z,3.13
2018-10-03T13:47:34.727Z,3.93
2018-10-03T13:49:58.615Z,2.90
2018-10-03T13:52:22.575Z,2.43
2018-10-03T13:54:46.551Z,3.63
2018-10-03T13:57:10.474Z,3.60
2018-10-03T13:59:34.417Z,2.63
2018-10-03T14:01:58.456Z,4.97
2018-10-03T14:04:22.304Z,5.90
2018-10-03T14:06:46.223Z,5.23
2018-10-03T14:09:11.125Z,2.97
2018-10-03T14:11:35.048Z,3.87
2018-10-03T14:13:58.935Z,4.80
2018-10-03T14:16:22.864Z,3.87
2018-10-03T14:18:46.772Z,6.60
2018-10-03T14:21:10.667Z,7.73
2018-10-03T14:23:34.805Z,7.13
2018-10-03T14:25:58.737Z,4.30
2018-10-03T14:28:22.626Z,4.27
2018-10-03T14:30:46.562Z,3.70
2018-10-03T14:33:10.489Z,5.40
2018-10-03T14:35:34.618Z,6.07
2018-10-03T14:37:58.585Z,6.63
2018-10-03T14:40:22.473Z,3.53
2018-10-03T14:42:46.435Z,11.03
2018-10-03T14:45:10.325Z,5.23
2018-10-03T14:47:34.505Z,5.10
2018-10-03T14:49:58.382Z,7.30
2018-10-03T14:52:22.342Z,5.27
2018-10-03T14:54:46.245Z,6.30
2018-10-03T14:57:10.148Z,6.40
2018-10-03T14:59:34.124Z,6.07
2018-10-03T15:01:57.999Z,6.83
2018-10-03T15:04:21.915Z,5.13
2018-10-03T15:06:45.834Z,5.73
2018-10-03T15:09:10.304Z,4.43
2018-10-03T15:11:34.386Z,4.13
2018-10-03T15:13:58.309Z,4.93
2018-10-03T15:16:22.265Z,5.50
2018-10-03T15:18:46.232Z,5.93
2018-10-03T15:21:10.155Z,4.53
2018-10-03T15:23:34.140Z,3.83
2018-10-03T15:25:58.049Z,5.63
2018-10-03T15:28:21.962Z,4.87
2018-10-03T15:30:45.915Z,6.83
2018-10-03T15:33:09.804Z,4.43
2018-10-03T15:35:33.780Z,4.60
2018-10-03T15:37:57.642Z,3.53
2018-10-03T15:40:21.545Z,5.40
2018-10-03T15:42:45.561Z,3.77
2018-10-03T15:45:09.481Z,4.83
2018-10-03T15:47:33.375Z,6.93
2018-10-03T15:49:57.285Z,5.43
2018-10-03T15:52:21.170Z,7.13
2018-10-03T15:54:45.135Z,4.83
2018-10-03T15:57:09.054Z,6.17
2018-10-03T15:59:32.950Z,3.20
2018-10-03T16:01:56.900Z,4.30
2018-10-03T16:04:20.784Z,6.00
2018-10-03T16:06:44.755Z,5.63
2018-10-03T16:09:09.508Z,2.83
2018-10-03T16:11:33.594Z,4.80
2018-10-03T16:13:57.632Z,7.60
2018-10-03T16:16:21.561Z,8.23
2018-10-03T16:18:45.557Z,5.53
2018-10-03T16:21:09.466Z,4.50
2018-10-03T16:23:33.454Z,8.13
2018-10-03T16:25:57.400Z,4.63
2018-10-03T16:28:21.293Z,5.17
2018-10-03T16:30:45.272Z,8.03
2018-10-03T16:33:09.242Z,4.43
2018-10-03T16:35:33.160Z,1.73
2018-10-03T16:37:57.104Z,7.50
2018-10-03T16:40:21.050Z,6.80
2018-10-03T16:42:45.041Z,8.57
2018-10-03T16:45:08.952Z,4.87
2018-10-03T16:47:32.872Z,6.63
2018-10-03T16:49:56.909Z,8.37
2018-10-03T16:52:20.794Z,7.40
2018-10-03T16:54:44.687Z,5.77
2018-10-03T16:57:08.590Z,5.90
2018-10-03T16:59:32.482Z,5.50
2018-10-03T17:01:56.416Z,7.03
2018-10-03T17:04:20.293Z,5.73
2018-10-03T17:06:44.232Z,5.63
2018-10-03T17:09:08.387Z,5.50
2018-10-03T17:11:32.284Z,6.47
2018-10-03T17:14:36.717Z,4.97
2018-10-03T17:17:00.854Z,5.33
2018-10-03T17:19:24.909Z,6.57
2018-10-03T17:21:49.776Z,2.93
2018-10-03T17:24:13.872Z,7.40
2018-10-03T17:26:37.806Z,4.83
2018-10-03T17:29:02.521Z,4.13
2018-10-03T17:31:26.468Z,6.40
2018-10-03T17:33:50.378Z,8.53
2018-10-03T17:36:14.443Z,7.33
2018-10-03T17:38:38.346Z,5.27
2018-10-03T17:41:02.278Z,8.07
2018-10-03T17:43:26.258Z,7.50
2018-10-03T17:45:50.341Z,3.60
2018-10-03T17:48:14.361Z,3.77
2018-10-03T17:50:38.277Z,8.40
2018-10-03T17:53:02.187Z,10.17
2018-10-03T17:55:26.167Z,10.63
2018-10-03T17:57:50.085Z,5.57
2018-10-03T18:00:14.146Z,8.90
2018-10-03T18:02:38.072Z,7.53
2018-10-03T18:05:02.152Z,7.40
2018-10-03T18:07:25.925Z,5.77
2018-10-03T18:09:49.919Z,8.20
2018-10-03T18:12:13.989Z,5.17
2018-10-03T18:14:37.959Z,7.57
2018-10-03T18:17:02.413Z,7.93
2018-10-03T18:19:26.333Z,4.37
2018-10-03T18:21:50.307Z,8.00
2018-10-03T18:24:14.500Z,7.37
2018-10-03T18:26:38.442Z,7.87
2018-10-03T18:29:02.385Z,6.77
2018-10-03T18:31:26.451Z,7.57
2018-10-03T18:33:50.300Z,5.47
2018-10-03T18:36:14.228Z,6.53
2018-10-03T18:38:38.150Z,7.43
2018-10-03T18:41:02.097Z,8.90
2018-10-03T18:43:26.023Z,5.97
2018-10-03T18:45:49.975Z,5.30
2018-10-03T18:48:13.908Z,5.33
2018-10-03T18:50:37.877Z,5.70
2018-10-03T18:53:01.825Z,4.83
2018-10-03T18:55:25.810Z,8.37
2018-10-03T18:57:49.775Z,5.03
2018-10-03T19:00:13.691Z,7.60
2018-10-03T19:02:37.696Z,6.73
2018-10-03T19:05:01.615Z,4.53
2018-10-03T19:07:25.591Z,9.23
2018-10-03T19:09:49.662Z,6.83
2018-10-03T19:12:13.776Z,6.47
2018-10-03T19:14:37.649Z,7.03
2018-10-03T19:17:01.565Z,5.20
2018-10-03T19:19:25.508Z,8.27
2018-10-03T19:21:49.497Z,5.73
2018-10-03T19:24:13.383Z,4.33
2018-10-03T19:26:37.298Z,4.83
2018-10-03T19:29:01.210Z,7.77
2018-10-03T19:31:25.103Z,7.80
2018-10-03T19:33:49.352Z,7.13
2018-10-03T19:36:13.311Z,2.90
2018-10-03T19:38:37.231Z,6.63
2018-10-03T19:41:01.149Z,4.20
2018-10-03T19:43:25.151Z,7.00
2018-10-03T19:45:49.294Z,7.97
2018-10-03T19:48:13.186Z,9.20
2018-10-03T19:50:37.057Z,4.77
2018-10-03T19:53:01.086Z,7.27
2018-10-03T19:55:25.000Z,4.93
2018-10-03T19:57:48.886Z,5.67
2018-10-03T20:00:12.788Z,8.23
2018-10-03T20:02:36.773Z,6.10
2018-10-03T20:05:00.745Z,4.10
2018-10-03T20:07:24.676Z,6.57
2018-10-03T20:09:48.524Z,4.27
2018-10-03T20:12:12.475Z,6.40
2018-10-03T20:14:36.365Z,7.37
2018-10-03T20:17:00.423Z,5.90
2018-10-03T20:19:24.311Z,7.57
2018-10-03T20:21:48.188Z,6.43
2018-10-03T20:24:12.100Z,5.97
2018-10-03T20:26:35.977Z,3.53
2018-10-03T20:28:59.960Z,10.97
2018-10-03T20:31:23.919Z,6.17
2018-10-03T20:33:47.787Z,8.33
2018-10-03T20:36:11.725Z,6.57
2018-10-03T20:38:35.597Z,7.13
2018-10-03T20:40:59.613Z,8.27
2018-10-03T20:43:23.510Z,10.23
2018-10-03T20:45:47.439Z,6.67
2018-10-03T20:48:11.441Z,6.47
2018-10-03T20:50:35.283Z,7.30
2018-10-03T20:52:59.281Z,8.17
2018-10-03T20:55:23.168Z,6.40
2018-10-03T20:57:47.064Z,6.60
2018-10-03T21:00:11.797Z,9.47
2018-10-03T21:02:36.356Z,6.57
2018-10-03T21:05:00.308Z,6.10
2018-10-03T21:07:24.208Z,7.77
2018-10-03T21:09:48.072Z,8.33
2018-10-03T21:12:11.978Z,6.13
2018-10-03T21:14:35.869Z,8.80
2018-10-03T21:16:59.795Z,6.27
2018-10-03T21:19:23.665Z,9.13
2018-10-03T21:21:47.562Z,7.37
2018-10-03T21:24:11.479Z,9.43
2018-10-03T21:26:35.411Z,4.10
2018-10-03T21:28:59.347Z,7.13
2018-10-03T21:31:23.248Z,5.37
2018-10-03T21:33:47.094Z,7.80
2018-10-03T21:36:11.009Z,8.90
2018-10-03T21:38:34.926Z,10.77
2018-10-03T21:40:58.808Z,7.23
2018-10-03T21:43:22.879Z,7.27
2018-10-03T21:45:46.835Z,9.80
2018-10-03T21:48:10.728Z,5.90
2018-10-03T21:50:34.879Z,4.80
2018-10-03T21:52:58.759Z,6.70
2018-10-03T21:55:22.734Z,8.80
2018-10-03T21:57:46.631Z,7.33
2018-10-03T22:00:10.583Z,7.30
2018-10-03T22:02:34.492Z,6.50
2018-10-03T22:04:58.387Z,8.67
2018-10-03T22:07:22.304Z,5.90
2018-10-03T22:09:46.164Z,7.03
2018-10-03T22:12:10.083Z,8.03
2018-10-03T22:14:34.004Z,8.40
2018-10-03T22:16:57.864Z,8.10
2018-10-03T22:19:21.784Z,8.07
2018-10-03T22:21:45.717Z,8.23
2018-10-03T22:24:09.599Z,13.43
2018-10-03T22:26:33.527Z,7.93
2018-10-03T22:28:57.428Z,7.47
2018-10-03T22:31:21.336Z,11.07
2018-10-03T22:33:45.216Z,7.30
2018-10-03T22:36:09.121Z,10.37
2018-10-03T22:38:33.025Z,4.40
2018-10-03T22:40:56.908Z,9.03
2018-10-03T22:43:20.905Z,11.90
2018-10-03T22:45:44.825Z,9.87
2018-10-03T22:48:08.685Z,11.03
2018-10-03T22:50:32.570Z,9.03
2018-10-03T22:52:56.464Z,8.17
2018-10-03T22:55:20.341Z,6.40
2018-10-03T22:57:44.255Z,5.67
2018-10-03T23:00:08.847Z,11.20
2018-10-03T23:02:32.717Z,10.37
2018-10-03T23:04:56.585Z,9.63
2018-10-03T23:07:20.515Z,7.57
2018-10-03T23:09:44.369Z,7.87
2018-10-03T23:12:08.298Z,5.67
2018-10-03T23:14:32.256Z,11.53
2018-10-03T23:16:56.627Z,9.87
2018-10-03T23:21:50.481Z,9.97
2018-10-03T23:24:14.405Z,7.97
2018-10-03T23:26:38.257Z,8.03
2018-10-03T23:29:02.209Z,8.77
2018-10-03T23:31:26.078Z,9.90
2018-10-03T23:33:49.916Z,12.47
2018-10-03T23:36:14.320Z,10.33
2018-10-03T23:38:38.226Z,13.00
2018-10-03T23:41:02.102Z,12.63
2018-10-03T23:43:25.969Z,7.93
2018-10-03T23:45:49.901Z,9.13
2018-10-03T23:48:13.788Z,12.60
2018-10-03T23:50:37.650Z,8.13
2018-10-03T23:53:01.526Z,10.60
2018-10-03T23:55:25.421Z,10.97
2018-10-03T23:57:49.298Z,8.87
